Monday, November 20, 2017, 1:54 AM GMT
Back to Local

CWIS, Charlevoix CS , Que.

Location: , , Canada Lat: 47.283
Local Time: 1:54 AM GMT ( 1:54 GMT) Lon: -70.633
Time Zone: GMT Elev: 2358 ft

Show me the last for .
Show Decoded

2017-11-20 01:00 METAR CWIS 200100Z AUTO 31005KT M07/M08 RMK AO1 SOG 06 1035 SLP896 T10721075 =
2017-11-20 00:00 METAR CWIS 200000Z AUTO 30005KT M07/M08 RMK AO1 SOG 06 1037 SLP887 T10661076
                 50016 =
2017-11-19 23:00 METAR CWIS 192300Z AUTO 29005KT M06/M07 RMK AO1 SOG 07 3036 PK WND 29017/2209
                 SLP877 T10601068 50016 =
2017-11-19 22:00 METAR CWIS 192200Z AUTO 31009G16KT M05/M05 RMK AO1 SOG 06 3029 SLP859 T10491054
                 50016 =
2017-11-19 20:00 METAR CWIS 192000Z AUTO 22005G25KT M01/ RMK AO1 SOG 07 3012 PK WND 23038/1900
                 SLP835 T1012 50011 =
2017-11-19 19:00 METAR CWIS 191900Z AUTO 05035G41KT M01/ RMK AO1 1PAST HR SOG 05 5007 PK WND
                 22041/1859 SLP823 P0004 T1006 50011 =
2017-11-19 18:00 METAR CWIS 191800Z AUTO 01003KT M01/ RMK AO1 SOG 06 6025 SLP817 T1010 50033 =
2017-11-19 17:00 METAR CWIS 191700Z AUTO 02003KT M01/ RMK AO1 6PAST HR SOG 06 6036 SLP822 P0002
                 T1011 50033 =
2017-11-19 16:00 METAR CWIS 191600Z AUTO 02004KT M02/ RMK AO1 SOG 06 8033 SLP833 T1017 50027 =
2017-11-19 15:00 METAR CWIS 191500Z AUTO 01004KT M02/ RMK AO1 6PAST HR SOG 06 8033 SLP846 P0002
                 T1021 50027 =
2017-11-19 14:00 METAR CWIS 191400Z AUTO 02003KT M03/ RMK AO1 0PAST HR SOG 05 6028 SLP863 P0004
                 T1026 50020 =
2017-11-19 13:00 METAR CWIS 191300Z AUTO 02005KT M03/ RMK AO1 1PAST HR SOG 06 7034 SLP869 P0004
                 T1026 50011 =
2017-11-19 12:00 METAR CWIS 191200Z AUTO 01004KT M04/M04 RMK AO1 SOG 06 6036 SLP882 T10351035
                 50021 =
2017-11-19 11:00 METAR CWIS 191100Z AUTO 01004KT M04/M04 RMK AO1 SOG 06 8035 PK WND 06017/1011
                 SLP893 T10411041 50021 =
2017-11-19 10:00 METAR CWIS 191000Z AUTO 03004G20KT M06/M06 RMK AO1 8PAST HR SOG 05 6047 PK WND
                 03020/0956 SLP908 P0003 T10601060 50021 =
2017-11-19 09:00 METAR CWIS 190900Z AUTO 02004KT M06/M06 RMK AO1 6PAST HR SOG 05 8040 SLP922
                 P0002 T10551055 50013 =
2017-11-19 08:00 METAR CWIS 190800Z AUTO 05007KT M06/M06 RMK AO1 7PAST HR PRESFR SOG 05 8043
                 SLP932 P0003 T10611061 50007 =
2017-11-19 07:00 METAR CWIS 190700Z AUTO 04005KT M06/M06 RMK AO1 SOG 05 6029 SLP958 T10611061 =
2017-11-19 06:00 METAR CWIS 190600Z AUTO 04004KT M06/M06 RMK AO1 SOG 05 6036 SLP965 T10621062 =
2017-11-19 05:00 METAR CWIS 190500Z AUTO 04004KT M06/M06 RMK AO1 SOG 05 6035 SLP979 T10641064 =
2017-11-19 04:00 METAR CWIS 190400Z AUTO 04005KT M07/M07 RMK AO1 SOG 05 8033 SLP990 T10651067 =
2017-11-19 03:00 METAR CWIS 190300Z AUTO 03005KT M06/M07 RMK AO1 SOG 05 8023 SLP007 T10641067 =
2017-11-19 02:00 METAR CWIS 190200Z AUTO 03004KT M07/M08 RMK AO1 SOG 05 6021 SLP022 T10651076 =

Support USWX by starting your Amazon purchase here.